Aérodrome :
LOGIN :

S'inscrire | Disclaimer

   EN    FR    IT 

 










Légende :    VFR   VFR Marginal   IFR   IFR Intensif   IFR Très Intensif
Visi : 
Plafond : 
>= 8 km
>= 3000ft
5 à 8 km
1000 à 3000 ft
1500m à 5 km
500 à 1000 ft
800 à 1500m
200 à 500 ft
< 800m
< 200 ft
Symboles :   Orages  Brouillard  Fortes neiges  Fortes précipitations  Vent > 20 kt
SIGMETs :   Divers  Orages  Givrage  Turbulence  Onde Orograph.  Cendres Volcan.







- Altitude de l'aérodrome : 72 ft
- Code IATA : UDE


EHVK - Volkel Airbase

DERNIER METAR :
  • 200732Z AUTO 21008KT 180V240 9000 -RADZ FEW019 SCT024 BKN034 04/03 Q1019 WHT

METARs EXPIRÉS :
  • 200725Z AUTO 22008KT 9000 +DZRA FEW022 BKN028 OVC034 04/03 Q1019 BLU
  • 200717Z AUTO 22008KT 9000 -RA FEW016 BKN025 OVC028 04/03 Q1019 BLU
  • 200706Z AUTO 23008KT 9000 +DZRA SCT023 BKN028 OVC034 04/03 Q1019 WHT
  • 200655Z AUTO 24008KT 9999 +DZ FEW030 OVC035 04/03 Q1020 BLU
  • 200632Z AUTO 23010KT 200V260 9999 DZ FEW011 BKN034 OVC038 04/03 Q1019 BLU
  • 200625Z AUTO 23009KT 9999 DZ FEW012 SCT018 BKN027 04/03 Q1019 WHT
  • 200555Z AUTO 22007KT 9999 FEW041 BKN045 OVC050 04/03 Q1019 BLU
  • 200525Z AUTO 23008KT 9999 FEW044 SCT051 BKN056 04/03 Q1019 BLU
  • 200455Z AUTO 22008KT 9999 FEW048 SCT058 BKN065 04/03 Q1019 BLU

TAF TAF EHVK
Valide du 20 à 06h jusqu'au 20 à 18h UTC


200555Z 2006/2018 21006KT 9999 BKN040
BECMG 2009/2011 SCT010 BKN012
TEMPO 2009/2011 3000 RADZ SCT005 BKN009
BECMG 2011/2013 23012KT 4500 -DZRA SCT005 BKN006
TEMPO 2011/2018 2500 DZRA SCT004 BKN005
Pas de NOTAMs connus pour ce terrain.



MET'MAP, la Météo Aéronautique d'un coup d'oeil ! - Copyright ORBIFLY Décembre 2007 - Disclaimer

ORBIFLY MET'MAP TEAM :

Programmation & Développement : Alexandra Zaïnal
Conception & Développement : Baudouin d'Aumeries
Co-Programmation & Développement : Marc-Olivier Méhu
Soutien technique & logistique : Manuel Goepfert

Contact : metmap@orbifly.com




SOURCES & CREDITS :

   NOAA